Columbus Metropolitan Airport
KCSG : now visible

Airfield :











YOU CAN JOIN US ON...

 
LOGIN :

Register | Disclaimer

   EN    FR    IT 

 









Legend :    VFR   Marginal VFR   IFR   Intensive IFR   Very Intensive IFR
Visi :
Ceiling :
>= 8 km
>= 3000ft
5 to 8 km
1000 to 3000 ft
1500m to 5 km
500 to 1000 ft
800 to 1500m
200 to 500 ft
< 800m
< 200 ft
Symbols :   Thunderstorms  Fog  Heavy snow  Heavy precipitations  Wind > 20 kt






- Airport Elevation : 397 ft
- IATA code : CSG


KCSG - Columbus Metropolitan

CURRENT METAR :
  • 242251Z 26008KT 10SM CLR 14/04 A2995 RMK AO2 SLP138 T01390044

EXPIRED METARs :
  • 242151Z 28007KT 10SM CLR 16/06 A2994 RMK AO2 SLP135 T01560056
  • 242051Z 29010KT 10SM CLR 16/07 A2994 RMK AO2 SLP138 T01560072 56008
  • 241951Z 29008KT 10SM SCT026 15/10 A2995 RMK AO2 SLP139 T01500100

TAF KCSG
Valid from the 24 at 18:00 until the 25 at 18:00 UTC


241732Z 2418/2518 24007KT 3SM BR VCSH BKN005 OVC015
FM242000 25008KT P6SM SCT015
FM242200 25008KT P6SM SCT035
FM250300 28007KT P6SM SCT060
FM250900 29008KT P6SM BKN030
FM251500 30009KT P6SM SCT035



MET'MAP, your aeronautical weather chart ! - Copyright ORBIFLY December 2007 - Disclaimer

ORBIFLY MET'MAP TEAM :

Programming & Development : Alexandra Zaïnal
Concept & original design : Baudouin d'Aumeries
Assistance for programming : Marc-Olivier Méhu
Technical & hardware support : Manuel Goepfert

Contact : metmap@orbifly.com




SOURCES & CREDITS :

   NOAA       Earth
Advisory